Eddyville, KY (42038)

1:12 AM CST on February 10, 2016 (GMT -0600)
The Ridge Eddycreek | | Change Station
CLOSE
Current Station
Personal Weather Station
Location: Eddyville, KY
Elevation: 471 ft
Nearby Weather Stations
Active Advisory: Special Statement

Elev 471 ft 37.02 °N, 88.01 °W | Updated 15 seconds ago

Overcast
Overcast
21.0 °F
Feels Like 15 °F
N
4.0
Wind Variable Wind from WNW
Gusts 6.0 mph

Today
High -- | Low -- °F
--% Chance of Precip.
Yesterday
High -- | Low -- °F
Precip. -- in
Pressure 30.08 in
Visibility 10.0 miles
Clouds Mostly Cloudy 5000 ft
Windchill 15 °F
Dew Point 16 °F
Humidity 79%
Rainfall 0.00 in
Snow Depth Not available.
6:46 AM 5:26 PM
Waxing Crescent, 4% visible
METAR K5M9 100655Z AUTO 31006KT 10SM BKN050 M08/M11 A3008 RMK AO2 T10801114
Pressure 30.08 in
Visibility 10.0 miles
Clouds Mostly Cloudy 5000 ft
Windchill 15 °F
Dew Point 16 °F
Humidity 79%
Rainfall 0.00 in
Snow Depth Not available.
6:46 AM 5:26 PM
Waxing Crescent, 4% visible
METAR K5M9 100655Z AUTO 31006KT 10SM BKN050 M08/M11 A3008 RMK AO2 T10801114

10-Day Weather Forecast

Almanac

Astronomy

Feb. 10, 2016 Rise Set
Actual Time
Civil Twilight
Nautical Twilight
Astronomical Twilight
Moon
Length of Visible Light
Length of Day
Tomorrow will be .
, % of the Moon is Illuminated

Today's Extremes

State Highs State Lows

Community

WunderPhotos

Upload Photos

1,891,826 photos uploaded!

WunderBlog® & News

Nearby

Air Quality

  Air Quality AQ Index Pollutant
Not available.

Snow Depth

Station Depth Elevation

Earthquake Activity

City Distance Mag. Time & Date
Minimum magnitude displayed is 2.5.

Coastal Water Temperatures

Place Temperature

Stations

Nearby Weather Stations

Station Location Temp. Windchill Dew Point Humidity Wind Precip. Elev Updated Type
                   

Watches & Warnings

Special Statement
Issued: 9:48 PM CST Feb. 9, 2016 – National Weather Service

... Wind chills to dip near zero at several spots overnight...

With the departure of snow to the east after midnight, the focus
will be toward colder wind chills through daybreak on Wednesday.

With temperatures expected to persist in the teens under
persistent northwest winds, wind chills are will dip into the
single digits. By daybreak, wind chills will range from near five
above along the southern border of southeast Missouri and west
Kentucky, to below zero along the Interstate 64 corridor across
southern Illinois and southwest Indiana.

If you must be outdoors for a long period of time late tonight or
during the commute to work or school, be sure to put on layers of
clothes to insulate you from the cold. Heat loss is most
significant from the top of your head, as well as from your hands
and feet, so keep them covered.

Wind chills will slowly improve through the morning hours on
Wednesday.


Smith